»·PEaware :: FJS1399 KEGE-KDEN

FJS1399 :: KEGE-KDEN

FLIGHT INFORMATION

Flight Status: Arrived
Operator: Unknown
More flights by this operator :: More flights under this callsign
Pilot: David C. (16084)
Aircraft: ECLIPSE 500
(EA50)
More flights by this aircraft type
Origin: KEGE Eagle Co Regl
United States
Destination: KDEN Denver Intl
United States
More flights between these airports :: More routes between these airports
Route: GYPSM6 RLG FRNCH KAILE2
File this flight plan on PilotEdge
Remarks:
Altitude:
(Current/Filed)
21,000ft
Speed:
(Current/Filed)
354kts
Departed: 23-Jul-18 05:03 PM
Arrived: 23-Jul-18 05:45 PM
Distance/Time
Traveled:
105nm/0:42
Distance/Time
To Go:
Arrived

Flight Plot

Page will automatically refresh every two minutes.

Flight plan parsing failed; only flown route is shown


Map Options




Map Legend


Flown Route
Filed Route
Departure Airport
Arrival Airport
Navaid (VOR, NDB)
Fix

Horizontal Profiles

Position Reports

Time Latitude Longitude Heading Altitude Ground
Speed
23-Jul-18 16:28 39.641197 -106.910032 262 6548ft 0kts
23-Jul-18 16:29 39.641197 -106.910032 262 6548ft 0kts
23-Jul-18 16:30 39.641197 -106.910032 262 6548ft 0kts
23-Jul-18 16:31 39.641197 -106.910032 262 6548ft 0kts
23-Jul-18 16:32 39.641197 -106.910032 262 6548ft 0kts
23-Jul-18 16:33 39.641197 -106.910032 262 6548ft 0kts
23-Jul-18 16:34 39.641197 -106.910032 262 6548ft 0kts
23-Jul-18 16:35 39.641197 -106.910032 262 6548ft 0kts
23-Jul-18 16:36 39.641197 -106.910032 262 6548ft 0kts
23-Jul-18 16:37 39.641197 -106.910032 262 6548ft 0kts
23-Jul-18 16:38 39.641197 -106.910032 262 6548ft 0kts
23-Jul-18 16:39 39.641197 -106.910032 262 6548ft 0kts
23-Jul-18 16:40 39.641197 -106.910032 262 6548ft 0kts
23-Jul-18 16:41 39.641197 -106.910032 262 6548ft 0kts
23-Jul-18 16:42 39.641197 -106.910032 262 6548ft 0kts
23-Jul-18 16:43 39.641197 -106.910032 262 6548ft 0kts
23-Jul-18 16:44 39.641197 -106.910032 262 6548ft 0kts
23-Jul-18 16:45 39.641197 -106.910032 262 6548ft 0kts
23-Jul-18 16:46 39.641197 -106.910032 262 6548ft 0kts
23-Jul-18 16:47 39.641197 -106.910032 262 6548ft 0kts
23-Jul-18 16:48 39.641197 -106.910032 262 6548ft 0kts
23-Jul-18 16:49 39.641197 -106.910032 262 6548ft 0kts
23-Jul-18 16:50 39.641197 -106.910032 262 6548ft 0kts
23-Jul-18 16:51 39.641197 -106.910032 262 6548ft 0kts
23-Jul-18 16:52 39.641197 -106.910032 262 6548ft 0kts
23-Jul-18 16:53 39.641197 -106.910032 262 6548ft 0kts
23-Jul-18 16:54 39.641197 -106.910032 262 6548ft 0kts
23-Jul-18 16:55 39.641197 -106.910032 262 6548ft 0kts
23-Jul-18 16:56 39.641197 -106.910032 262 6548ft 0kts
23-Jul-18 16:57 39.641197 -106.910032 262 6548ft 0kts
23-Jul-18 16:58 39.641197 -106.910032 262 6548ft 0kts
23-Jul-18 16:59 39.641197 -106.910032 262 6548ft 0kts
23-Jul-18 17:00 39.642589 -106.908332 80 6548ft 26kts
23-Jul-18 17:01 39.643522 -106.901865 12 6548ft 0kts
23-Jul-18 17:02 39.643522 -106.901865 12 6548ft 0kts
23-Jul-18 17:03 39.644360 -106.903084 261 6548ft 30kts
23-Jul-18 17:04 39.640716 -106.934857 263 6781ft 158kts
23-Jul-18 17:05 39.642827 -106.973901 351 8477ft 163kts
23-Jul-18 17:06 39.681985 -106.960087 20 10369ft 177kts
23-Jul-18 17:07 39.712654 -106.987667 303 12189ft 180kts
23-Jul-18 17:08 39.737365 -107.038399 303 14000ft 186kts
23-Jul-18 17:09 39.771540 -107.077765 4 14976ft 230kts
23-Jul-18 17:10 39.807293 -107.011232 66 14988ft 302kts
23-Jul-18 17:11 39.831969 -106.930217 63 14984ft 265kts
23-Jul-18 17:12 39.856377 -106.851949 63 15342ft 264kts
23-Jul-18 17:13 39.883304 -106.783509 39 17465ft 235kts
23-Jul-18 17:14 39.922551 -106.731922 41 18965ft 237kts
23-Jul-18 17:15 39.966955 -106.671157 42 20457ft 244kts
23-Jul-18 17:16 40.013633 -106.606202 42 21304ft 274kts
23-Jul-18 17:17 40.063373 -106.536448 43 21322ft 319kts
23-Jul-18 17:18 40.117838 -106.459611 43 21377ft 346kts
23-Jul-18 17:19 40.174691 -106.379095 43 21426ft 362kts
23-Jul-18 17:20 40.229952 -106.300620 44 21460ft 377kts
23-Jul-18 17:21 40.288613 -106.217055 44 21461ft 385kts
23-Jul-18 17:22 40.341963 -106.134607 61 21425ft 390kts
23-Jul-18 17:23 40.343018 -106.027889 95 21465ft 395kts
23-Jul-18 17:24 40.340007 -105.903850 87 20690ft 386kts
23-Jul-18 17:25 40.343130 -105.787771 85 19421ft 333kts
23-Jul-18 17:26 40.347205 -105.684278 84 18585ft 346kts
23-Jul-18 17:27 40.352031 -105.566386 84 17609ft 341kts
23-Jul-18 17:28 40.356162 -105.465655 84 16778ft 336kts
23-Jul-18 17:29 40.349528 -105.384929 97 16073ft 333kts
23-Jul-18 17:30 40.340164 -105.313141 98 15454ft 329kts
23-Jul-18 17:31 40.330557 -105.241749 98 14828ft 326kts
23-Jul-18 17:32 40.317081 -105.143690 98 13962ft 322kts
23-Jul-18 17:33 40.305292 -105.059028 99 13132ft 262kts
23-Jul-18 17:34 40.295293 -104.987048 101 13036ft 264kts
23-Jul-18 17:35 40.284658 -104.911445 103 12521ft 257kts
23-Jul-18 17:36 40.272740 -104.828413 103 11580ft 248kts
23-Jul-18 17:37 40.260691 -104.745869 103 10762ft 248kts
23-Jul-18 17:38 40.225690 -104.688804 157 9786ft 216kts
23-Jul-18 17:39 40.175935 -104.664688 163 8866ft 207kts
23-Jul-18 17:40 40.122616 -104.656534 176 8012ft 202kts
23-Jul-18 17:41 40.069552 -104.657067 177 8003ft 208kts
23-Jul-18 17:42 40.014575 -104.657910 176 8003ft 205kts
23-Jul-18 17:43 39.959897 -104.658660 176 7373ft 197kts
23-Jul-18 17:44 39.908005 -104.659409 175 6376ft 183kts
23-Jul-18 17:45 39.872222 -104.659979 173 5687ft 112kts
23-Jul-18 17:46 39.846502 -104.660365 182 5434ft 38kts
23-Jul-18 17:47 39.840736 -104.661476 221 5434ft 20kts
23-Jul-18 17:48 39.838895 -104.665103 181 5434ft 2kts
23-Jul-18 17:49 39.838880 -104.665104 181 5434ft 0kts

Navigation Log

Ident Type
Flight plan parsing failed, navigation log unavailable